createdAt,value
2023-08-28T00:01:39.232Z,97717.31
2023-08-28T00:04:06.515Z,97721.66
2023-08-28T00:06:33.331Z,97720.44
2023-08-28T00:08:59.961Z,97725.41
2023-08-28T00:11:26.680Z,97727.88
2023-08-28T00:13:53.355Z,97726.25
2023-08-28T00:16:20.750Z,97723.22
2023-08-28T00:18:47.771Z,97720.75
2023-08-28T00:21:14.429Z,97727.81
2023-08-28T00:23:41.111Z,97717.94
2023-08-28T00:26:08.810Z,97728.03
2023-08-28T00:28:35.496Z,97731.13
2023-08-28T00:31:04.347Z,97725.19
2023-08-28T00:33:30.948Z,97721.72
2023-08-28T00:35:57.657Z,97718.94
2023-08-28T00:38:24.382Z,97720.88
2023-08-28T00:40:51.060Z,97727.44
2023-08-28T00:43:18.118Z,97732.72
2023-08-28T00:45:45.148Z,97735.50
2023-08-28T00:48:15.633Z,97736.34
2023-08-28T00:50:42.917Z,97738.16
2023-08-28T00:53:12.854Z,97747.22
2023-08-28T00:55:41.364Z,97736.94
2023-08-28T00:58:08.085Z,97735.44
2023-08-28T01:00:34.683Z,97727.50
2023-08-28T01:03:02.045Z,97737.22
2023-08-28T01:05:54.736Z,97735.59
2023-08-28T01:08:55.178Z,97741.16
2023-08-28T01:11:45.899Z,97735.34
2023-08-28T01:14:29.752Z,97735.28
2023-08-28T01:17:08.194Z,97731.78
2023-08-28T01:19:41.812Z,97740.41
2023-08-28T01:22:36.099Z,97737.91
2023-08-28T01:25:11.014Z,97728.47
2023-08-28T01:27:41.828Z,97724.03
2023-08-28T01:30:08.799Z,97714.69
2023-08-28T01:32:35.543Z,97699.44
2023-08-28T01:35:06.527Z,97710.69
2023-08-28T01:37:59.710Z,97724.19
2023-08-28T01:40:34.067Z,97729.06
2023-08-28T01:43:03.367Z,97729.22
2023-08-28T01:45:30.432Z,97728.38
2023-08-28T01:47:57.158Z,97734.94
2023-08-28T01:50:23.949Z,97735.50
2023-08-28T01:52:50.596Z,97732.00
2023-08-28T01:55:17.271Z,97739.13
2023-08-28T01:57:44.245Z,97742.06
2023-08-28T02:00:11.572Z,97745.50
2023-08-28T02:02:38.350Z,97741.66
2023-08-28T02:05:05.455Z,97738.34
2023-08-28T02:07:32.065Z,97735.84
2023-08-28T02:09:58.688Z,97738.94
2023-08-28T02:12:25.319Z,97748.34
2023-08-28T02:14:51.979Z,97765.28
2023-08-28T02:17:18.708Z,97765.56
2023-08-28T02:19:45.412Z,97762.09
2023-08-28T02:22:11.997Z,97760.56
2023-08-28T02:24:38.725Z,97767.78
2023-08-28T02:27:05.535Z,97762.81
2023-08-28T02:29:32.139Z,97752.13
2023-08-28T02:31:58.802Z,97743.00
2023-08-28T02:34:25.415Z,97738.69
2023-08-28T02:36:52.057Z,97733.97
2023-08-28T02:39:19.183Z,97722.88
2023-08-28T02:41:45.848Z,97719.28
2023-08-28T02:44:12.479Z,97716.91
2023-08-28T02:46:39.263Z,97713.31
2023-08-28T02:49:06.049Z,97714.56
2023-08-28T02:51:32.641Z,97715.72
2023-08-28T02:53:59.292Z,97714.72
2023-08-28T02:56:28.289Z,97709.59
2023-08-28T02:58:55.632Z,97720.16
2023-08-28T03:01:22.823Z,97716.53
2023-08-28T03:03:49.731Z,97718.19
2023-08-28T03:06:16.533Z,97712.25
2023-08-28T03:08:43.298Z,97715.31
2023-08-28T03:11:10.173Z,97718.09
2023-08-28T03:13:36.969Z,97716.28
2023-08-28T03:16:03.698Z,97721.53
2023-08-28T03:18:30.472Z,97736.84
2023-08-28T03:20:57.154Z,97733.81
2023-08-28T03:23:23.832Z,97736.44
2023-08-28T03:25:51.195Z,97732.97
2023-08-28T03:28:17.872Z,97733.25
2023-08-28T03:30:44.531Z,97736.84
2023-08-28T03:33:11.271Z,97732.41
2023-08-28T03:35:37.992Z,97726.31
2023-08-28T03:38:04.992Z,97730.75
2023-08-28T03:40:31.662Z,97731.56
2023-08-28T03:42:58.361Z,97731.88
2023-08-28T03:45:25.077Z,97742.13
2023-08-28T03:47:51.815Z,97744.91
2023-08-28T03:50:18.479Z,97742.41
2023-08-28T03:52:45.092Z,97735.34
2023-08-28T03:55:12.271Z,97731.03
2023-08-28T03:57:39.021Z,97725.75
2023-08-28T04:00:12.117Z,97718.53
2023-08-28T04:02:38.920Z,97718.84
2023-08-28T04:05:08.164Z,97720.50
2023-08-28T04:07:35.706Z,97717.19
2023-08-28T04:10:02.594Z,97717.19
2023-08-28T04:12:29.437Z,97719.81
2023-08-28T04:14:56.323Z,97721.75
2023-08-28T04:17:23.066Z,97716.06
2023-08-28T04:19:51.389Z,97704.13
2023-08-28T04:22:22.102Z,97710.09
2023-08-28T04:24:51.630Z,97709.16
2023-08-28T04:27:18.624Z,97703.03
2023-08-28T04:29:45.293Z,97700.84
2023-08-28T04:32:12.003Z,97703.19
2023-08-28T04:34:38.614Z,97692.50
2023-08-28T04:37:05.328Z,97688.31
2023-08-28T04:39:32.015Z,97686.50
2023-08-28T04:41:58.773Z,97685.69
2023-08-28T04:44:25.479Z,97678.59
2023-08-28T04:46:52.620Z,97672.91
2023-08-28T04:49:19.333Z,97665.16
2023-08-28T04:51:46.136Z,97651.00
2023-08-28T04:54:12.986Z,97656.94
2023-08-28T04:56:39.652Z,97651.69
2023-08-28T04:59:06.916Z,97656.66
2023-08-28T05:01:34.077Z,97649.03
2023-08-28T05:04:01.021Z,97658.59
2023-08-28T05:06:27.809Z,97652.22
2023-08-28T05:08:55.444Z,97643.19
2023-08-28T05:11:22.176Z,97637.47
2023-08-28T05:13:49.097Z,97639.22
2023-08-28T05:16:15.857Z,97625.44
2023-08-28T05:18:43.752Z,97621.56
2023-08-28T05:21:10.904Z,97618.59
2023-08-28T05:23:37.976Z,97610.00
2023-08-28T05:26:04.665Z,97615.13
2023-08-28T05:28:32.711Z,97619.97
2023-08-28T05:30:59.508Z,97626.44
2023-08-28T05:33:26.338Z,97618.13
2023-08-28T05:35:53.042Z,97614.19
2023-08-28T05:38:21.111Z,97609.31
2023-08-28T05:40:47.982Z,97604.88
2023-08-28T05:43:14.834Z,97605.94
2023-08-28T05:45:41.527Z,97601.78
2023-08-28T05:48:09.159Z,97586.09
2023-08-28T05:50:38.122Z,97568.03
2023-08-28T05:53:05.528Z,97550.69
2023-08-28T05:55:32.228Z,97556.03
2023-08-28T05:57:58.946Z,97571.88
2023-08-28T06:00:27.023Z,97560.69
2023-08-28T06:02:53.754Z,97558.75
2023-08-28T06:05:20.655Z,97563.03
2023-08-28T06:07:47.364Z,97560.91
2023-08-28T06:10:19.034Z,97560.75
2023-08-28T06:12:50.185Z,97565.06
2023-08-28T06:15:20.443Z,97546.72
2023-08-28T06:17:47.926Z,97539.34
2023-08-28T06:20:15.128Z,97533.97
2023-08-28T06:22:44.509Z,97537.47
2023-08-28T06:25:11.181Z,97533.56
2023-08-28T06:27:38.923Z,97520.00
2023-08-28T06:30:07.173Z,97533.72
2023-08-28T06:32:34.428Z,97519.72
2023-08-28T06:35:01.523Z,97521.75
2023-08-28T06:37:28.396Z,97520.94
2023-08-28T06:39:56.390Z,97518.84
2023-08-28T06:42:24.079Z,97513.97
2023-08-28T06:44:51.091Z,97507.56
2023-08-28T06:47:18.197Z,97515.84
2023-08-28T06:49:44.885Z,97517.34
2023-08-28T06:52:11.634Z,97511.63
2023-08-28T06:54:50.747Z,97504.53
2023-08-28T06:57:18.582Z,97493.69
2023-08-28T06:59:45.372Z,97494.97
2023-08-28T07:02:12.000Z,97495.81
2023-08-28T07:04:38.703Z,97497.50
2023-08-28T07:07:05.390Z,97497.16
2023-08-28T07:09:32.246Z,97500.63
2023-08-28T07:11:58.945Z,97496.84
2023-08-28T07:14:26.355Z,97486.06
2023-08-28T07:16:53.120Z,97495.34
2023-08-28T07:19:19.801Z,97491.84
2023-08-28T07:21:46.436Z,97489.66
2023-08-28T07:24:13.128Z,97501.88
2023-08-28T07:26:39.852Z,97509.84
2023-08-28T07:29:06.514Z,97500.38
2023-08-28T07:31:33.810Z,97487.94
2023-08-28T07:34:00.675Z,97506.97
2023-08-28T07:36:27.642Z,97509.56
2023-08-28T07:38:54.357Z,97491.69
2023-08-28T07:41:21.930Z,97499.75
2023-08-28T07:43:49.075Z,97507.19
2023-08-28T07:46:15.944Z,97506.81
2023-08-28T07:48:42.726Z,97506.59
2023-08-28T07:51:10.738Z,97510.34
2023-08-28T07:53:37.951Z,97502.06
2023-08-28T07:56:05.019Z,97510.13
2023-08-28T07:58:33.806Z,97514.91
2023-08-28T08:01:01.534Z,97523.69
2023-08-28T08:03:28.922Z,97526.34
2023-08-28T08:05:55.961Z,97512.56
2023-08-28T08:08:22.709Z,97522.31
2023-08-28T08:10:49.411Z,97526.34
2023-08-28T08:13:17.750Z,97528.94
2023-08-28T08:15:44.514Z,97530.72
2023-08-28T08:18:11.191Z,97538.50
2023-08-28T08:20:37.917Z,97531.91
2023-08-28T08:23:05.774Z,97529.28
2023-08-28T08:25:34.534Z,97523.28
2023-08-28T08:28:03.874Z,97517.00
2023-08-28T08:30:31.297Z,97525.25
2023-08-28T08:32:58.280Z,97532.22
2023-08-28T08:35:26.121Z,97527.22
2023-08-28T08:37:56.303Z,97529.56
2023-08-28T08:40:26.069Z,97529.94
2023-08-28T08:42:53.896Z,97525.72
2023-08-28T08:45:23.448Z,97520.72
2023-08-28T08:47:54.951Z,97513.28
2023-08-28T08:50:23.931Z,97520.31
2023-08-28T08:52:50.758Z,97515.31
2023-08-28T08:55:38.155Z,97507.50
2023-08-28T08:58:10.265Z,97503.53
2023-08-28T09:00:39.945Z,97500.03
2023-08-28T09:04:15.799Z,97500.31
2023-08-28T09:06:43.008Z,97496.28
2023-08-28T09:09:13.150Z,97493.03
2023-08-28T09:11:41.743Z,97484.69
2023-08-28T09:14:09.166Z,97492.19
2023-08-28T09:16:36.532Z,97484.41
2023-08-28T09:19:04.389Z,97484.34
2023-08-28T09:21:39.479Z,97482.31
2023-08-28T09:24:11.485Z,97468.31
2023-08-28T09:26:40.579Z,97474.00
2023-08-28T09:29:09.919Z,97466.72
2023-08-28T09:31:41.305Z,97467.41
2023-08-28T09:34:09.902Z,97464.56
2023-08-28T09:36:45.475Z,97469.66
2023-08-28T09:39:13.997Z,97457.72
2023-08-28T09:41:51.213Z,97456.09
2023-08-28T09:44:22.616Z,97458.38
2023-08-28T09:46:52.807Z,97445.47
2023-08-28T09:49:20.609Z,97446.38
2023-08-28T09:51:50.533Z,97434.88
2023-08-28T09:54:17.979Z,97436.59
2023-08-28T09:56:45.724Z,97438.16
2023-08-28T09:59:14.715Z,97439.53
2023-08-28T10:01:42.523Z,97426.34
2023-08-28T10:04:12.047Z,97427.38
2023-08-28T10:06:54.607Z,97420.03
2023-08-28T10:09:24.228Z,97415.09
2023-08-28T10:11:52.261Z,97411.34
2023-08-28T10:14:22.575Z,97411.97
2023-08-28T10:17:02.628Z,97402.00
2023-08-28T10:19:39.664Z,97422.97
2023-08-28T10:22:10.729Z,97408.69
2023-08-28T10:24:41.660Z,97402.09
2023-08-28T10:27:12.068Z,97394.41
2023-08-28T10:29:41.029Z,97380.97
2023-08-28T10:32:11.356Z,97391.69
2023-08-28T10:34:41.636Z,97379.91
2023-08-28T10:37:26.312Z,97384.38
2023-08-28T10:40:00.376Z,97384.81
2023-08-28T10:42:28.872Z,97381.16
2023-08-28T10:44:59.521Z,97379.34
2023-08-28T10:47:28.626Z,97373.00
2023-08-28T10:49:59.068Z,97373.38
2023-08-28T10:52:26.225Z,97371.38
2023-08-28T10:55:05.069Z,97369.00
2023-08-28T10:57:32.367Z,97367.78
2023-08-28T11:00:16.010Z,97364.59
2023-08-28T11:03:08.100Z,97361.78
2023-08-28T11:05:36.100Z,97364.69
2023-08-28T11:08:08.137Z,97363.88
2023-08-28T11:10:37.254Z,97343.00
2023-08-28T11:13:20.039Z,97342.81
2023-08-28T11:15:47.502Z,97339.31
2023-08-28T11:18:22.162Z,97327.06
2023-08-28T11:20:54.048Z,97334.47
2023-08-28T11:23:38.515Z,97340.28
2023-08-28T11:26:27.797Z,97332.31
2023-08-28T11:28:55.257Z,97322.03
2023-08-28T11:31:34.983Z,97339.06
2023-08-28T11:34:02.387Z,97334.22
2023-08-28T11:36:42.209Z,97339.13
2023-08-28T11:39:29.081Z,97334.03
2023-08-28T11:41:56.424Z,97341.25
2023-08-28T11:44:29.390Z,97325.78
2023-08-28T11:46:58.537Z,97316.41
2023-08-28T11:49:40.018Z,97319.91
2023-08-28T11:52:22.020Z,97305.78
2023-08-28T11:54:59.997Z,97311.09
2023-08-28T11:57:32.905Z,97297.19
2023-08-28T12:00:05.841Z,97301.88
2023-08-28T12:02:39.456Z,97298.03
2023-08-28T12:05:10.286Z,97274.75
2023-08-28T12:07:37.686Z,97286.28
2023-08-28T12:10:08.112Z,97280.13
2023-08-28T12:12:39.082Z,97276.91
2023-08-28T12:15:15.623Z,97276.47
2023-08-28T12:17:48.520Z,97269.06
2023-08-28T12:20:20.977Z,97253.56
2023-08-28T12:22:48.491Z,97259.78
2023-08-28T12:25:18.873Z,97249.16
2023-08-28T12:27:49.906Z,97241.53
2023-08-28T12:30:21.307Z,97225.63
2023-08-28T12:32:55.295Z,97217.38
2023-08-28T12:35:23.774Z,97230.56
2023-08-28T12:37:53.305Z,97232.84
2023-08-28T12:40:22.148Z,97220.19
2023-08-28T12:42:56.977Z,97214.88
2023-08-28T12:45:25.313Z,97222.28
2023-08-28T12:47:52.504Z,97224.94
2023-08-28T12:50:24.116Z,97226.38
2023-08-28T12:52:53.078Z,97212.09
2023-08-28T12:55:20.437Z,97227.63
2023-08-28T12:57:50.593Z,97231.94
2023-08-28T13:00:18.159Z,97220.31
2023-08-28T13:02:49.084Z,97214.53
2023-08-28T13:05:16.881Z,97214.16
2023-08-28T13:07:45.455Z,97203.34
2023-08-28T13:10:13.350Z,97203.34
2023-08-28T13:12:40.720Z,97181.06
2023-08-28T13:15:08.801Z,97196.09
2023-08-28T13:17:36.177Z,97194.25
2023-08-28T13:20:03.475Z,97186.47
2023-08-28T13:22:30.720Z,97188.53
2023-08-28T13:24:58.356Z,97178.03
2023-08-28T13:27:25.561Z,97184.34
2023-08-28T13:29:53.152Z,97179.44
2023-08-28T13:32:20.106Z,97183.16
2023-08-28T13:34:47.051Z,97187.09
2023-08-28T13:37:14.249Z,97185.69
2023-08-28T13:39:42.174Z,97181.56
2023-08-28T13:42:09.637Z,97185.69
2023-08-28T13:44:37.406Z,97184.22
2023-08-28T13:47:05.102Z,97183.63
2023-08-28T13:49:32.937Z,97188.31
2023-08-28T13:52:00.337Z,97176.84
2023-08-28T13:54:27.399Z,97174.63
2023-08-28T13:56:54.928Z,97168.28
2023-08-28T13:59:21.881Z,97165.22
2023-08-28T14:01:50.168Z,97154.00
2023-08-28T14:04:18.750Z,97153.38
2023-08-28T14:06:46.616Z,97156.66
2023-08-28T14:09:14.395Z,97151.34
2023-08-28T14:11:41.864Z,97136.28
2023-08-28T14:14:09.121Z,97138.94
2023-08-28T14:16:37.360Z,97133.41
2023-08-28T14:19:04.618Z,97127.28
2023-08-28T14:21:31.782Z,97119.13
2023-08-28T14:24:00.665Z,97112.63
2023-08-28T14:26:28.118Z,97117.94
2023-08-28T14:28:55.573Z,97116.31
2023-08-28T14:31:22.987Z,97124.06
2023-08-28T14:33:50.428Z,97124.47
2023-08-28T14:36:17.655Z,97125.72
2023-08-28T14:38:44.613Z,97126.31
2023-08-28T14:41:11.861Z,97126.31
2023-08-28T14:43:41.507Z,97130.22
2023-08-28T14:46:09.076Z,97129.00
2023-08-28T14:48:36.187Z,97128.19
2023-08-28T14:51:03.561Z,97129.44
2023-08-28T14:53:31.029Z,97136.41
2023-08-28T14:55:58.288Z,97138.25
2023-08-28T14:58:25.420Z,97129.19
2023-08-28T15:00:56.774Z,97135.16
2023-08-28T15:03:25.454Z,97130.66
2023-08-28T15:05:53.397Z,97127.81
2023-08-28T15:08:21.381Z,97125.97
2023-08-28T15:10:50.392Z,97135.16
2023-08-28T15:13:18.189Z,97136.38
2023-08-28T15:15:50.791Z,97131.03
2023-08-28T15:18:18.995Z,97128.59
2023-08-28T15:20:47.103Z,97148.84
2023-08-28T15:23:15.787Z,97147.22
2023-08-28T15:25:42.828Z,97140.03
2023-08-28T15:28:10.442Z,97136.34
2023-08-28T15:30:37.854Z,97142.03
2023-08-28T15:33:05.739Z,97149.97
2023-08-28T15:35:33.696Z,97140.75
2023-08-28T15:38:04.902Z,97148.72
2023-08-28T15:40:36.750Z,97142.59
2023-08-28T15:43:07.556Z,97154.03
2023-08-28T15:49:36.287Z,97162.78
2023-08-28T15:52:05.143Z,97146.81
2023-08-28T15:54:37.593Z,97145.84
2023-08-28T15:57:13.038Z,97137.44
2023-08-28T15:59:48.364Z,97147.78
2023-08-28T16:02:16.744Z,97154.13
2023-08-28T16:04:46.976Z,97152.84
2023-08-28T16:07:14.755Z,97154.28
2023-08-28T16:09:42.245Z,97143.00
2023-08-28T16:12:11.176Z,97155.28
2023-08-28T16:14:39.720Z,97157.94
2023-08-28T16:18:23.808Z,97158.13
2023-08-28T16:21:00.526Z,97145.44
2023-08-28T16:23:31.067Z,97146.06
2023-08-28T16:25:59.225Z,97142.56
2023-08-28T16:28:26.883Z,97133.72
2023-08-28T16:30:54.584Z,97138.41
2023-08-28T16:33:22.211Z,97135.56
2023-08-28T16:35:51.205Z,97122.03
2023-08-28T16:38:23.484Z,97119.13
2023-08-28T16:40:51.706Z,97124.84
2023-08-28T16:43:19.090Z,97126.50
2023-08-28T16:45:46.597Z,97129.53
2023-08-28T16:48:13.770Z,97134.84
2023-08-28T16:50:44.499Z,97139.53
2023-08-28T16:53:13.029Z,97129.28
2023-08-28T16:55:45.910Z,97137.41
2023-08-28T16:58:14.053Z,97130.03
2023-08-28T17:00:41.293Z,97129.22
2023-08-28T17:03:08.846Z,97120.28
2023-08-28T17:05:37.953Z,97126.09
2023-08-28T17:08:05.952Z,97107.31
2023-08-28T17:10:33.241Z,97108.09
2023-08-28T17:13:00.684Z,97100.31
2023-08-28T17:15:28.382Z,97098.31
2023-08-28T17:17:59.019Z,97102.34
2023-08-28T17:20:35.405Z,97094.50
2023-08-28T17:23:05.983Z,97107.13
2023-08-28T17:25:37.299Z,97103.09
2023-08-28T17:28:05.139Z,97100.50
2023-08-28T17:30:32.590Z,97094.94
2023-08-28T17:33:00.085Z,97084.88
2023-08-28T17:35:31.480Z,97082.34
2023-08-28T17:38:03.157Z,97081.34
2023-08-28T17:40:46.385Z,97089.25
2023-08-28T17:43:18.843Z,97083.00
2023-08-28T17:45:53.625Z,97066.94
2023-08-28T17:48:22.568Z,97077.47
2023-08-28T17:50:55.494Z,97092.47
2023-08-28T17:53:26.926Z,97091.53
2023-08-28T17:55:54.997Z,97099.22
2023-08-28T17:58:23.507Z,97089.63
2023-08-28T18:00:54.508Z,97099.41
2023-08-28T18:03:37.105Z,97098.41
2023-08-28T18:06:06.670Z,97073.94
2023-08-28T18:08:37.971Z,97084.34
2023-08-28T18:11:06.478Z,97083.50
2023-08-28T18:14:23.935Z,97091.53
2023-08-28T18:16:50.963Z,97081.66
2023-08-28T18:19:20.976Z,97065.66
2023-08-28T18:21:48.186Z,97064.28
2023-08-28T18:24:15.217Z,97064.19
2023-08-28T18:26:42.650Z,97060.81
2023-08-28T18:29:10.156Z,97049.19
2023-08-28T18:31:37.424Z,97045.88
2023-08-28T18:34:04.531Z,97053.03
2023-08-28T18:36:36.994Z,97072.34
2023-08-28T18:39:06.459Z,97048.59
2023-08-28T18:41:36.266Z,97050.75
2023-08-28T18:44:03.954Z,97035.69
2023-08-28T18:46:35.052Z,97061.41
2023-08-28T18:49:28.049Z,97047.66
2023-08-28T18:52:03.634Z,97028.56
2023-08-28T18:54:32.218Z,97024.66
2023-08-28T18:56:59.276Z,97028.16
2023-08-28T18:59:27.113Z,97023.75
2023-08-28T19:01:55.300Z,97018.66
2023-08-28T19:04:22.587Z,97007.81
2023-08-28T19:06:49.958Z,96995.81
2023-08-28T19:09:16.669Z,97008.47
2023-08-28T19:11:43.387Z,97002.09
2023-08-28T19:14:10.071Z,96994.03
2023-08-28T19:16:38.269Z,96998.59
2023-08-28T19:19:05.447Z,96996.78
2023-08-28T19:21:32.162Z,96995.34
2023-08-28T19:23:58.801Z,96990.13
2023-08-28T19:26:25.513Z,96994.72
2023-08-28T19:28:52.236Z,96984.69
2023-08-28T19:31:19.053Z,96995.72
2023-08-28T19:33:46.493Z,96978.25
2023-08-28T19:36:13.485Z,96972.03
2023-08-28T19:38:40.181Z,96996.13
2023-08-28T19:41:06.825Z,96986.56
2023-08-28T19:43:33.443Z,96982.13
2023-08-28T19:46:02.541Z,96991.50
2023-08-28T19:48:33.101Z,96993.50
2023-08-28T19:51:00.342Z,96983.47
2023-08-28T19:53:27.148Z,96958.91
2023-08-28T19:55:54.064Z,96975.72
2023-08-28T19:58:21.113Z,96967.16
2023-08-28T20:00:47.752Z,96962.56
2023-08-28T20:03:14.485Z,96955.28
2023-08-28T20:05:41.240Z,96947.69
2023-08-28T20:08:08.058Z,96954.94
2023-08-28T20:10:35.440Z,96943.09
2023-08-28T20:13:02.301Z,96927.91
2023-08-28T20:15:28.938Z,96952.31
2023-08-28T20:17:55.679Z,96954.94
2023-08-28T20:20:22.721Z,96949.19
2023-08-28T20:22:49.361Z,96971.59
2023-08-28T20:25:16.290Z,96949.69
2023-08-28T20:27:44.354Z,96963.84
2023-08-28T20:30:11.598Z,96967.81
2023-08-28T20:32:38.557Z,96956.59
2023-08-28T20:35:06.429Z,96964.00
2023-08-28T20:37:34.068Z,96963.22
2023-08-28T20:40:01.028Z,96963.66
2023-08-28T20:42:27.639Z,96966.47
2023-08-28T20:44:54.332Z,96960.56
2023-08-28T20:47:20.951Z,96955.28
2023-08-28T20:49:47.621Z,96944.41
2023-08-28T20:52:14.254Z,96946.56
2023-08-28T20:54:40.847Z,96935.00
2023-08-28T20:57:07.552Z,96932.88
2023-08-28T20:59:34.212Z,96923.50
2023-08-28T21:02:00.810Z,96919.38
2023-08-28T21:04:27.505Z,96901.25
2023-08-28T21:06:54.192Z,96895.31
2023-08-28T21:09:20.840Z,96913.63
2023-08-28T21:11:47.470Z,96915.91
2023-08-28T21:14:14.051Z,96902.91
2023-08-28T21:16:40.685Z,96920.53
2023-08-28T21:19:07.510Z,96928.44
2023-08-28T21:21:34.249Z,96924.34
2023-08-28T21:24:00.930Z,96919.72
2023-08-28T21:26:27.545Z,96948.72
2023-08-28T21:28:54.261Z,96982.00
2023-08-28T21:31:20.940Z,97059.81
2023-08-28T21:33:48.607Z,97141.06
2023-08-28T21:36:15.404Z,97287.59
2023-08-28T21:38:42.058Z,97361.44
2023-08-28T21:41:10.402Z,97373.34
2023-08-28T21:43:37.521Z,97365.28
2023-08-28T21:46:05.484Z,97364.44
2023-08-28T21:48:32.581Z,97381.22
2023-08-28T21:51:00.215Z,97387.91
2023-08-28T21:53:26.872Z,97331.97
2023-08-28T21:55:54.793Z,97303.25
2023-08-28T21:58:22.329Z,97302.84
2023-08-28T22:00:49.642Z,97281.69
2023-08-28T22:03:16.675Z,97281.81
2023-08-28T22:05:46.716Z,97289.88
2023-08-28T22:08:14.604Z,97322.22
2023-08-28T22:10:44.334Z,97327.09
2023-08-28T22:13:11.205Z,97321.88
2023-08-28T22:15:41.378Z,97303.69
2023-08-28T22:18:10.927Z,97293.44
2023-08-28T22:20:43.319Z,97338.94
2023-08-28T22:23:11.697Z,97371.66
2023-08-28T22:25:41.118Z,97412.03
2023-08-28T22:28:08.135Z,97436.75
2023-08-28T22:30:35.146Z,97411.56
2023-08-28T22:33:02.049Z,97332.44
2023-08-28T22:35:28.845Z,97262.63
2023-08-28T22:37:55.739Z,97295.63
2023-08-28T22:40:22.607Z,97327.03
2023-08-28T22:42:49.807Z,97344.47
2023-08-28T22:45:17.521Z,97347.38
2023-08-28T22:47:44.419Z,97340.03
2023-08-28T22:50:11.327Z,97329.50
2023-08-28T22:52:38.101Z,97333.19
2023-08-28T22:55:07.604Z,97283.72
2023-08-28T22:57:35.498Z,97280.97
2023-08-28T23:00:06.205Z,97298.13
2023-08-28T23:02:33.150Z,97318.47
2023-08-28T23:05:00.041Z,97348.00
2023-08-28T23:07:26.924Z,97388.00
2023-08-28T23:09:53.576Z,97423.91
2023-08-28T23:12:20.313Z,97350.41
2023-08-28T23:14:46.984Z,97292.44
2023-08-28T23:17:14.276Z,97283.72
2023-08-28T23:19:41.648Z,97248.25
2023-08-28T23:22:08.417Z,97273.03
2023-08-28T23:24:35.310Z,97329.00
2023-08-28T23:27:04.825Z,97299.00
2023-08-28T23:29:31.477Z,97250.25
2023-08-28T23:31:58.137Z,97296.47
2023-08-28T23:34:24.852Z,97246.41
2023-08-28T23:36:52.279Z,97165.47
2023-08-28T23:39:18.910Z,97126.56
2023-08-28T23:41:45.541Z,97157.97
2023-08-28T23:44:12.189Z,97180.47
2023-08-28T23:46:38.892Z,97190.31
2023-08-28T23:49:05.626Z,97185.81
2023-08-28T23:51:32.387Z,97190.22
2023-08-28T23:53:59.011Z,97193.31
2023-08-28T23:56:25.875Z,97198.72
2023-08-28T23:58:52.977Z,97204.53
